Access Samsung mobile phone model SGH-A411 with Ubuntu?

Hans Muecke ubuntu-ml01 at filderstadtweather.eu
Tue Mar 20 16:47:09 UTC 2012


Am Dienstag, 20. März 2012, 09:02:12 schrieb squareyes:
> Hi all,
> does anyone have a method of accessing pictures on a
> Samsung phone Model SGH-A411. This phone does not have
> a micro sd card, or anywhere where one could be installed.
> This is a friends phone, and he has been unable to access it via
> XP Vista, or win7, so has come to me as a last resort in the hope that
> Ubuntu may do the job.

Odd that it couldn't be accessed via WIN ... anyway, you could try pluging it 
into usb and see if it comes up as a disk drive. 

-- 
Talk to you later ... Hans (171 to go)
 
2012/03/20 16:20
EDDS 201620Z 01004KT CAVOK 13/M01 Q1032 NOSIG




More information about the ubuntu-users mailing list